sensor_id;sensor_type;location;lat;lon;timestamp;P1;durP1;ratioP1;P2;durP2;ratioP2
16770;SDS011;8503;52.472;13.344;2023-09-08T00:00:32;7.95;;;5.72;;
16770;SDS011;8503;52.472;13.344;2023-09-08T00:01:16;8.80;;;5.40;;
16770;SDS011;8503;52.472;13.344;2023-09-08T00:01:59;9.40;;;6.05;;
16770;SDS011;8503;52.472;13.344;2023-09-08T00:02:42;7.30;;;5.47;;
16770;SDS011;8503;52.472;13.344;2023-09-08T00:03:26;8.52;;;5.80;;
16770;SDS011;8503;52.472;13.344;2023-09-08T00:04:09;7.13;;;5.53;;
16770;SDS011;8503;52.472;13.344;2023-09-08T00:04:53;8.85;;;4.97;;
16770;SDS011;8503;52.472;13.344;2023-09-08T00:05:37;6.10;;;5.50;;
16770;SDS011;8503;52.472;13.344;2023-09-08T00:06:20;7.80;;;5.20;;
16770;SDS011;8503;52.472;13.344;2023-09-08T00:07:04;8.98;;;5.43;;
16770;SDS011;8503;52.472;13.344;2023-09-08T00:07:48;8.77;;;5.47;;
16770;SDS011;8503;52.472;13.344;2023-09-08T00:08:30;11.35;;;6.03;;
16770;SDS011;8503;52.472;13.344;2023-09-08T00:09:14;6.57;;;5.18;;
16770;SDS011;8503;52.472;13.344;2023-09-08T00:09:58;8.35;;;6.13;;
16770;SDS011;8503;52.472;13.344;2023-09-08T00:10:40;7.95;;;6.05;;
16770;SDS011;8503;52.472;13.344;2023-09-08T00:11:23;7.00;;;5.22;;
16770;SDS011;8503;52.472;13.344;2023-09-08T00:12:07;7.18;;;5.20;;
16770;SDS011;8503;52.472;13.344;2023-09-08T00:12:50;8.43;;;5.68;;
16770;SDS011;8503;52.472;13.344;2023-09-08T00:13:33;6.97;;;5.55;;
16770;SDS011;8503;52.472;13.344;2023-09-08T00:14:17;6.38;;;5.47;;
16770;SDS011;8503;52.472;13.344;2023-09-08T00:15:00;6.75;;;5.00;;
16770;SDS011;8503;52.472;13.344;2023-09-08T00:15:43;7.10;;;6.00;;
16770;SDS011;8503;52.472;13.344;2023-09-08T00:16:27;10.23;;;5.90;;
16770;SDS011;8503;52.472;13.344;2023-09-08T00:17:11;7.45;;;5.70;;
16770;SDS011;8503;52.472;13.344;2023-09-08T00:17:54;7.68;;;5.57;;
16770;SDS011;8503;52.472;13.344;2023-09-08T00:18:39;9.65;;;5.22;;
16770;SDS011;8503;52.472;13.344;2023-09-08T00:19:21;9.40;;;5.50;;
16770;SDS011;8503;52.472;13.344;2023-09-08T00:20:05;7.47;;;5.50;;
16770;SDS011;8503;52.472;13.344;2023-09-08T00:20:50;6.35;;;5.35;;
16770;SDS011;8503;52.472;13.344;2023-09-08T00:21:35;6.70;;;5.57;;
16770;SDS011;8503;52.472;13.344;2023-09-08T00:22:20;7.55;;;5.43;;
16770;SDS011;8503;52.472;13.344;2023-09-08T00:23:03;9.68;;;5.80;;
16770;SDS011;8503;52.472;13.344;2023-09-08T00:23:47;7.38;;;5.45;;
16770;SDS011;8503;52.472;13.344;2023-09-08T00:24:29;6.93;;;5.75;;
16770;SDS011;8503;52.472;13.344;2023-09-08T00:25:12;7.88;;;6.30;;
16770;SDS011;8503;52.472;13.344;2023-09-08T00:25:56;8.25;;;6.00;;
16770;SDS011;8503;52.472;13.344;2023-09-08T00:26:41;6.55;;;5.45;;
16770;SDS011;8503;52.472;13.344;2023-09-08T00:27:23;9.80;;;6.30;;
16770;SDS011;8503;52.472;13.344;2023-09-08T00:28:07;9.35;;;6.22;;
16770;SDS011;8503;52.472;13.344;2023-09-08T00:28:50;7.35;;;5.38;;
16770;SDS011;8503;52.472;13.344;2023-09-08T00:29:33;8.10;;;5.85;;
16770;SDS011;8503;52.472;13.344;2023-09-08T00:30:16;8.02;;;5.35;;
16770;SDS011;8503;52.472;13.344;2023-09-08T00:30:59;6.28;;;5.38;;
16770;SDS011;8503;52.472;13.344;2023-09-08T00:32:05;8.63;;;5.70;;
16770;SDS011;8503;52.472;13.344;2023-09-08T00:32:58;9.00;;;5.38;;
16770;SDS011;8503;52.472;13.344;2023-09-08T00:33:41;8.32;;;5.70;;
16770;SDS011;8503;52.472;13.344;2023-09-08T00:34:25;10.50;;;5.93;;
16770;SDS011;8503;52.472;13.344;2023-09-08T00:35:10;7.63;;;5.57;;
16770;SDS011;8503;52.472;13.344;2023-09-08T00:36:38;8.25;;;6.20;;
16770;SDS011;8503;52.472;13.344;2023-09-08T00:37:23;8.02;;;5.53;;
16770;SDS011;8503;52.472;13.344;2023-09-08T00:38:07;6.82;;;5.68;;
16770;SDS011;8503;52.472;13.344;2023-09-08T00:38:50;8.82;;;5.63;;
16770;SDS011;8503;52.472;13.344;2023-09-08T00:39:34;10.55;;;5.43;;
16770;SDS011;8503;52.472;13.344;2023-09-08T00:40:18;7.40;;;5.35;;
16770;SDS011;8503;52.472;13.344;2023-09-08T00:41:00;15.65;;;5.80;;
16770;SDS011;8503;52.472;13.344;2023-09-08T00:41:43;7.80;;;6.60;;
16770;SDS011;8503;52.472;13.344;2023-09-08T00:42:27;6.40;;;5.07;;
16770;SDS011;8503;52.472;13.344;2023-09-08T00:43:10;7.53;;;6.10;;
16770;SDS011;8503;52.472;13.344;2023-09-08T00:43:53;8.00;;;5.57;;
16770;SDS011;8503;52.472;13.344;2023-09-08T00:44:36;6.57;;;5.10;;
16770;SDS011;8503;52.472;13.344;2023-09-08T00:45:19;7.75;;;5.93;;
16770;SDS011;8503;52.472;13.344;2023-09-08T00:46:02;7.68;;;5.72;;
16770;SDS011;8503;52.472;13.344;2023-09-08T00:46:47;6.78;;;5.55;;
16770;SDS011;8503;52.472;13.344;2023-09-08T00:47:30;7.70;;;5.80;;
16770;SDS011;8503;52.472;13.344;2023-09-08T00:48:14;8.30;;;6.00;;
16770;SDS011;8503;52.472;13.344;2023-09-08T00:48:58;8.15;;;5.88;;
16770;SDS011;8503;52.472;13.344;2023-09-08T00:49:42;9.35;;;5.53;;
16770;SDS011;8503;52.472;13.344;2023-09-08T00:50:25;7.47;;;5.82;;
16770;SDS011;8503;52.472;13.344;2023-09-08T00:51:09;7.53;;;5.40;;
16770;SDS011;8503;52.472;13.344;2023-09-08T00:51:52;9.60;;;6.45;;
16770;SDS011;8503;52.472;13.344;2023-09-08T00:52:37;7.18;;;5.20;;
16770;SDS011;8503;52.472;13.344;2023-09-08T00:53:21;8.07;;;5.38;;
16770;SDS011;8503;52.472;13.344;2023-09-08T00:54:05;7.13;;;5.30;;
16770;SDS011;8503;52.472;13.344;2023-09-08T00:54:48;7.35;;;5.45;;
16770;SDS011;8503;52.472;13.344;2023-09-08T00:55:31;7.32;;;5.68;;
16770;SDS011;8503;52.472;13.344;2023-09-08T00:56:15;6.35;;;5.35;;
16770;SDS011;8503;52.472;13.344;2023-09-08T00:56:58;8.90;;;6.20;;
16770;SDS011;8503;52.472;13.344;2023-09-08T00:57:44;7.78;;;5.78;;
16770;SDS011;8503;52.472;13.344;2023-09-08T00:58:28;7.72;;;5.60;;
16770;SDS011;8503;52.472;13.344;2023-09-08T00:59:12;7.72;;;5.45;;
16770;SDS011;8503;52.472;13.344;2023-09-08T00:59:55;7.15;;;6.20;;
16770;SDS011;8503;52.472;13.344;2023-09-08T01:00:39;9.40;;;6.60;;
16770;SDS011;8503;52.472;13.344;2023-09-08T01:01:22;6.55;;;5.30;;
16770;SDS011;8503;52.472;13.344;2023-09-08T01:02:05;8.23;;;5.85;;
16770;SDS011;8503;52.472;13.344;2023-09-08T01:02:48;7.45;;;5.57;;
16770;SDS011;8503;52.472;13.344;2023-09-08T01:03:31;9.30;;;5.20;;
16770;SDS011;8503;52.472;13.344;2023-09-08T01:04:14;7.97;;;6.18;;
16770;SDS011;8503;52.472;13.344;2023-09-08T01:04:58;6.70;;;5.78;;
16770;SDS011;8503;52.472;13.344;2023-09-08T01:05:41;8.85;;;5.95;;
16770;SDS011;8503;52.472;13.344;2023-09-08T01:06:24;6.88;;;5.68;;
16770;SDS011;8503;52.472;13.344;2023-09-08T01:07:09;7.93;;;6.07;;
16770;SDS011;8503;52.472;13.344;2023-09-08T01:07:54;7.95;;;5.75;;
16770;SDS011;8503;52.472;13.344;2023-09-08T01:08:38;8.15;;;6.45;;
16770;SDS011;8503;52.472;13.344;2023-09-08T01:09:23;8.23;;;6.15;;
16770;SDS011;8503;52.472;13.344;2023-09-08T01:10:07;6.97;;;4.90;;
16770;SDS011;8503;52.472;13.344;2023-09-08T01:10:50;8.00;;;5.78;;
16770;SDS011;8503;52.472;13.344;2023-09-08T01:11:35;7.45;;;5.88;;
16770;SDS011;8503;52.472;13.344;2023-09-08T01:12:18;7.53;;;5.88;;
16770;SDS011;8503;52.472;13.344;2023-09-08T01:13:01;7.00;;;5.30;;
16770;SDS011;8503;52.472;13.344;2023-09-08T01:13:45;9.05;;;6.05;;
16770;SDS011;8503;52.472;13.344;2023-09-08T01:14:28;7.57;;;6.07;;
16770;SDS011;8503;52.472;13.344;2023-09-08T01:15:11;7.18;;;5.88;;
16770;SDS011;8503;52.472;13.344;2023-09-08T01:15:55;8.80;;;6.30;;
16770;SDS011;8503;52.472;13.344;2023-09-08T01:16:38;8.15;;;6.00;;
16770;SDS011;8503;52.472;13.344;2023-09-08T01:17:22;9.35;;;6.20;;
16770;SDS011;8503;52.472;13.344;2023-09-08T01:18:05;6.97;;;5.80;;
16770;SDS011;8503;52.472;13.344;2023-09-08T01:18:49;7.85;;;6.00;;
16770;SDS011;8503;52.472;13.344;2023-09-08T01:19:34;7.50;;;5.80;;
16770;SDS011;8503;52.472;13.344;2023-09-08T01:20:18;7.82;;;5.75;;
16770;SDS011;8503;52.472;13.344;2023-09-08T01:21:10;7.53;;;5.60;;
16770;SDS011;8503;52.472;13.344;2023-09-08T01:23:39;7.55;;;5.85;;
16770;SDS011;8503;52.472;13.344;2023-09-08T01:25:57;6.38;;;5.60;;
16770;SDS011;8503;52.472;13.344;2023-09-08T01:26:48;9.98;;;6.13;;
16770;SDS011;8503;52.472;13.344;2023-09-08T01:27:32;7.60;;;5.88;;
16770;SDS011;8503;52.472;13.344;2023-09-08T01:28:17;8.65;;;5.60;;
16770;SDS011;8503;52.472;13.344;2023-09-08T01:29:04;8.25;;;5.97;;
16770;SDS011;8503;52.472;13.344;2023-09-08T01:29:48;7.93;;;5.82;;
16770;SDS011;8503;52.472;13.344;2023-09-08T01:30:33;7.07;;;6.13;;
16770;SDS011;8503;52.472;13.344;2023-09-08T01:31:17;6.43;;;5.10;;
16770;SDS011;8503;52.472;13.344;2023-09-08T01:32:01;7.00;;;6.10;;
16770;SDS011;8503;52.472;13.344;2023-09-08T01:32:45;9.80;;;6.50;;
16770;SDS011;8503;52.472;13.344;2023-09-08T01:33:29;7.95;;;6.20;;
16770;SDS011;8503;52.472;13.344;2023-09-08T01:34:13;7.95;;;6.20;;
16770;SDS011;8503;52.472;13.344;2023-09-08T01:34:56;8.60;;;6.75;;
16770;SDS011;8503;52.472;13.344;2023-09-08T01:35:41;9.18;;;6.30;;
16770;SDS011;8503;52.472;13.344;2023-09-08T01:36:24;7.13;;;5.85;;
16770;SDS011;8503;52.472;13.344;2023-09-08T01:37:07;8.52;;;5.72;;
16770;SDS011;8503;52.472;13.344;2023-09-08T01:37:50;8.13;;;5.95;;
16770;SDS011;8503;52.472;13.344;2023-09-08T01:38:33;8.20;;;6.53;;
16770;SDS011;8503;52.472;13.344;2023-09-08T01:39:18;6.95;;;5.85;;
16770;SDS011;8503;52.472;13.344;2023-09-08T01:40:00;7.65;;;6.47;;
16770;SDS011;8503;52.472;13.344;2023-09-08T01:40:45;7.38;;;6.13;;
16770;SDS011;8503;52.472;13.344;2023-09-08T01:41:29;8.68;;;6.82;;
16770;SDS011;8503;52.472;13.344;2023-09-08T01:42:12;8.45;;;6.20;;
16770;SDS011;8503;52.472;13.344;2023-09-08T01:42:55;8.18;;;6.63;;
16770;SDS011;8503;52.472;13.344;2023-09-08T01:43:38;7.53;;;6.50;;
16770;SDS011;8503;52.472;13.344;2023-09-08T01:44:22;8.00;;;6.13;;
16770;SDS011;8503;52.472;13.344;2023-09-08T01:45:05;7.38;;;5.22;;
16770;SDS011;8503;52.472;13.344;2023-09-08T01:45:49;8.07;;;6.03;;
16770;SDS011;8503;52.472;13.344;2023-09-08T01:46:32;8.52;;;6.03;;
16770;SDS011;8503;52.472;13.344;2023-09-08T01:47:15;7.55;;;5.88;;
16770;SDS011;8503;52.472;13.344;2023-09-08T01:47:58;11.10;;;6.60;;
16770;SDS011;8503;52.472;13.344;2023-09-08T01:48:42;9.60;;;6.18;;
16770;SDS011;8503;52.472;13.344;2023-09-08T01:49:26;8.20;;;6.28;;
16770;SDS011;8503;52.472;13.344;2023-09-08T01:50:09;9.55;;;5.80;;
16770;SDS011;8503;52.472;13.344;2023-09-08T01:50:51;9.88;;;6.55;;
16770;SDS011;8503;52.472;13.344;2023-09-08T01:51:35;7.95;;;7.07;;
16770;SDS011;8503;52.472;13.344;2023-09-08T01:52:18;6.93;;;5.57;;
16770;SDS011;8503;52.472;13.344;2023-09-08T01:53:01;7.75;;;5.70;;
16770;SDS011;8503;52.472;13.344;2023-09-08T01:53:45;9.38;;;5.90;;
16770;SDS011;8503;52.472;13.344;2023-09-08T01:54:27;9.90;;;6.22;;
16770;SDS011;8503;52.472;13.344;2023-09-08T01:55:10;7.40;;;5.78;;
16770;SDS011;8503;52.472;13.344;2023-09-08T01:55:54;8.23;;;5.93;;
16770;SDS011;8503;52.472;13.344;2023-09-08T01:56:38;8.95;;;6.55;;
16770;SDS011;8503;52.472;13.344;2023-09-08T01:57:21;10.57;;;6.88;;
16770;SDS011;8503;52.472;13.344;2023-09-08T01:58:03;9.65;;;6.50;;
16770;SDS011;8503;52.472;13.344;2023-09-08T01:58:47;8.82;;;6.30;;
16770;SDS011;8503;52.472;13.344;2023-09-08T01:59:30;11.55;;;6.18;;
16770;SDS011;8503;52.472;13.344;2023-09-08T02:00:13;7.10;;;5.93;;
16770;SDS011;8503;52.472;13.344;2023-09-08T02:00:58;8.98;;;6.30;;
16770;SDS011;8503;52.472;13.344;2023-09-08T02:01:46;7.25;;;6.25;;
16770;SDS011;8503;52.472;13.344;2023-09-08T02:02:29;7.20;;;5.85;;
16770;SDS011;8503;52.472;13.344;2023-09-08T02:03:13;8.82;;;6.22;;
16770;SDS011;8503;52.472;13.344;2023-09-08T02:03:56;8.27;;;6.10;;
16770;SDS011;8503;52.472;13.344;2023-09-08T02:04:39;7.78;;;5.68;;
16770;SDS011;8503;52.472;13.344;2023-09-08T02:05:24;9.15;;;6.32;;
16770;SDS011;8503;52.472;13.344;2023-09-08T02:06:08;9.52;;;6.18;;
16770;SDS011;8503;52.472;13.344;2023-09-08T02:06:50;8.02;;;6.03;;
16770;SDS011;8503;52.472;13.344;2023-09-08T02:07:34;8.02;;;6.07;;
16770;SDS011;8503;52.472;13.344;2023-09-08T02:08:17;7.45;;;6.65;;
16770;SDS011;8503;52.472;13.344;2023-09-08T02:09:00;7.55;;;6.07;;
16770;SDS011;8503;52.472;13.344;2023-09-08T02:09:44;10.38;;;7.05;;
16770;SDS011;8503;52.472;13.344;2023-09-08T02:10:27;8.57;;;6.28;;
16770;SDS011;8503;52.472;13.344;2023-09-08T02:11:12;8.75;;;7.03;;
16770;SDS011;8503;52.472;13.344;2023-09-08T02:11:55;9.00;;;6.15;;
16770;SDS011;8503;52.472;13.344;2023-09-08T02:12:38;10.73;;;7.03;;
16770;SDS011;8503;52.472;13.344;2023-09-08T02:13:21;7.97;;;6.35;;
16770;SDS011;8503;52.472;13.344;2023-09-08T02:14:05;7.50;;;6.05;;
16770;SDS011;8503;52.472;13.344;2023-09-08T02:14:47;9.88;;;6.60;;
16770;SDS011;8503;52.472;13.344;2023-09-08T02:15:34;12.07;;;5.78;;
16770;SDS011;8503;52.472;13.344;2023-09-08T02:16:17;10.10;;;5.88;;
16770;SDS011;8503;52.472;13.344;2023-09-08T02:17:00;10.20;;;6.90;;
16770;SDS011;8503;52.472;13.344;2023-09-08T02:17:44;8.70;;;6.88;;
16770;SDS011;8503;52.472;13.344;2023-09-08T02:18:27;7.90;;;6.38;;
16770;SDS011;8503;52.472;13.344;2023-09-08T02:19:10;6.68;;;5.97;;
16770;SDS011;8503;52.472;13.344;2023-09-08T02:19:54;7.88;;;6.40;;
16770;SDS011;8503;52.472;13.344;2023-09-08T02:20:37;7.90;;;6.68;;
16770;SDS011;8503;52.472;13.344;2023-09-08T02:21:20;10.32;;;6.85;;
16770;SDS011;8503;52.472;13.344;2023-09-08T02:22:04;7.63;;;6.03;;
16770;SDS011;8503;52.472;13.344;2023-09-08T02:22:49;7.05;;;5.93;;
16770;SDS011;8503;52.472;13.344;2023-09-08T02:23:32;11.60;;;6.82;;
16770;SDS011;8503;52.472;13.344;2023-09-08T02:24:16;7.75;;;6.07;;
16770;SDS011;8503;52.472;13.344;2023-09-08T02:24:59;8.07;;;6.68;;
16770;SDS011;8503;52.472;13.344;2023-09-08T02:25:42;9.13;;;6.13;;
16770;SDS011;8503;52.472;13.344;2023-09-08T02:26:32;9.35;;;6.47;;
16770;SDS011;8503;52.472;13.344;2023-09-08T02:27:15;7.97;;;6.53;;
16770;SDS011;8503;52.472;13.344;2023-09-08T02:27:58;10.70;;;6.47;;
16770;SDS011;8503;52.472;13.344;2023-09-08T02:28:41;7.22;;;5.45;;
16770;SDS011;8503;52.472;13.344;2023-09-08T02:29:24;8.98;;;6.82;;
16770;SDS011;8503;52.472;13.344;2023-09-08T02:30:09;7.90;;;6.03;;
16770;SDS011;8503;52.472;13.344;2023-09-08T02:30:53;8.55;;;6.70;;
16770;SDS011;8503;52.472;13.344;2023-09-08T02:31:36;11.05;;;6.88;;
16770;SDS011;8503;52.472;13.344;2023-09-08T02:32:19;9.27;;;7.20;;
16770;SDS011;8503;52.472;13.344;2023-09-08T02:33:03;8.85;;;6.20;;
16770;SDS011;8503;52.472;13.344;2023-09-08T02:33:46;8.57;;;6.57;;
16770;SDS011;8503;52.472;13.344;2023-09-08T02:34:29;9.27;;;6.38;;
16770;SDS011;8503;52.472;13.344;2023-09-08T02:35:17;10.77;;;6.43;;
16770;SDS011;8503;52.472;13.344;2023-09-08T02:36:01;8.20;;;6.18;;
16770;SDS011;8503;52.472;13.344;2023-09-08T02:36:45;8.02;;;6.32;;
16770;SDS011;8503;52.472;13.344;2023-09-08T02:37:32;6.90;;;6.13;;
16770;SDS011;8503;52.472;13.344;2023-09-08T02:38:14;8.45;;;5.82;;
16770;SDS011;8503;52.472;13.344;2023-09-08T02:38:57;8.60;;;7.13;;
16770;SDS011;8503;52.472;13.344;2023-09-08T02:39:41;9.23;;;6.53;;
16770;SDS011;8503;52.472;13.344;2023-09-08T02:40:24;7.78;;;6.72;;
16770;SDS011;8503;52.472;13.344;2023-09-08T02:41:07;9.63;;;6.72;;
16770;SDS011;8503;52.472;13.344;2023-09-08T02:41:52;8.90;;;6.18;;
16770;SDS011;8503;52.472;13.344;2023-09-08T02:42:35;9.35;;;6.50;;
16770;SDS011;8503;52.472;13.344;2023-09-08T02:43:18;9.15;;;6.53;;
16770;SDS011;8503;52.472;13.344;2023-09-08T02:44:02;8.05;;;6.80;;
16770;SDS011;8503;52.472;13.344;2023-09-08T02:44:45;8.40;;;6.10;;
16770;SDS011;8503;52.472;13.344;2023-09-08T02:45:28;8.02;;;6.22;;
16770;SDS011;8503;52.472;13.344;2023-09-08T02:46:16;10.70;;;6.78;;
16770;SDS011;8503;52.472;13.344;2023-09-08T02:46:59;8.15;;;5.55;;
16770;SDS011;8503;52.472;13.344;2023-09-08T02:47:41;10.52;;;6.78;;
16770;SDS011;8503;52.472;13.344;2023-09-08T02:48:25;7.95;;;6.65;;
16770;SDS011;8503;52.472;13.344;2023-09-08T02:49:08;9.70;;;6.28;;
16770;SDS011;8503;52.472;13.344;2023-09-08T02:49:51;9.38;;;6.18;;
16770;SDS011;8503;52.472;13.344;2023-09-08T02:50:35;9.15;;;6.35;;
16770;SDS011;8503;52.472;13.344;2023-09-08T02:51:18;10.63;;;6.22;;
16770;SDS011;8503;52.472;13.344;2023-09-08T02:52:01;9.20;;;6.45;;
16770;SDS011;8503;52.472;13.344;2023-09-08T02:52:45;9.10;;;5.95;;
16770;SDS011;8503;52.472;13.344;2023-09-08T02:53:28;9.05;;;5.72;;
16770;SDS011;8503;52.472;13.344;2023-09-08T02:54:11;10.23;;;6.13;;
16770;SDS011;8503;52.472;13.344;2023-09-08T02:54:54;9.68;;;7.25;;
16770;SDS011;8503;52.472;13.344;2023-09-08T02:55:38;9.80;;;6.72;;
16770;SDS011;8503;52.472;13.344;2023-09-08T02:56:21;9.30;;;6.30;;
16770;SDS011;8503;52.472;13.344;2023-09-08T02:57:05;9.20;;;6.70;;
16770;SDS011;8503;52.472;13.344;2023-09-08T02:57:49;9.38;;;7.43;;
16770;SDS011;8503;52.472;13.344;2023-09-08T02:58:31;9.20;;;6.78;;
16770;SDS011;8503;52.472;13.344;2023-09-08T02:59:15;10.43;;;7.18;;
16770;SDS011;8503;52.472;13.344;2023-09-08T02:59:59;8.05;;;6.40;;
16770;SDS011;8503;52.472;13.344;2023-09-08T03:00:42;8.60;;;6.32;;
16770;SDS011;8503;52.472;13.344;2023-09-08T03:01:25;9.93;;;7.05;;
16770;SDS011;8503;52.472;13.344;2023-09-08T03:02:09;10.85;;;7.07;;
16770;SDS011;8503;52.472;13.344;2023-09-08T03:02:52;9.43;;;7.03;;
16770;SDS011;8503;52.472;13.344;2023-09-08T03:03:35;9.38;;;7.20;;
16770;SDS011;8503;52.472;13.344;2023-09-08T03:04:18;9.23;;;6.78;;
16770;SDS011;8503;52.472;13.344;2023-09-08T03:05:01;8.48;;;6.38;;
16770;SDS011;8503;52.472;13.344;2023-09-08T03:05:44;11.80;;;6.80;;
16770;SDS011;8503;52.472;13.344;2023-09-08T03:06:28;8.43;;;6.68;;
16770;SDS011;8503;52.472;13.344;2023-09-08T03:07:11;10.20;;;7.03;;
16770;SDS011;8503;52.472;13.344;2023-09-08T03:07:54;10.13;;;6.75;;
16770;SDS011;8503;52.472;13.344;2023-09-08T03:08:38;8.80;;;6.70;;
16770;SDS011;8503;52.472;13.344;2023-09-08T03:09:21;9.30;;;6.72;;
16770;SDS011;8503;52.472;13.344;2023-09-08T03:10:04;7.95;;;7.15;;
16770;SDS011;8503;52.472;13.344;2023-09-08T03:10:49;9.85;;;6.28;;
16770;SDS011;8503;52.472;13.344;2023-09-08T03:11:36;8.93;;;6.63;;
16770;SDS011;8503;52.472;13.344;2023-09-08T03:12:22;10.43;;;7.22;;
16770;SDS011;8503;52.472;13.344;2023-09-08T03:13:04;9.75;;;7.00;;
16770;SDS011;8503;52.472;13.344;2023-09-08T03:13:47;10.00;;;7.15;;
16770;SDS011;8503;52.472;13.344;2023-09-08T03:14:31;9.10;;;6.85;;
16770;SDS011;8503;52.472;13.344;2023-09-08T03:15:14;9.20;;;6.88;;
16770;SDS011;8503;52.472;13.344;2023-09-08T03:16:01;8.57;;;6.57;;
16770;SDS011;8503;52.472;13.344;2023-09-08T03:16:46;11.50;;;7.10;;
16770;SDS011;8503;52.472;13.344;2023-09-08T03:17:29;10.40;;;6.60;;
16770;SDS011;8503;52.472;13.344;2023-09-08T03:18:12;7.18;;;6.00;;
16770;SDS011;8503;52.472;13.344;2023-09-08T03:18:57;8.63;;;6.57;;
16770;SDS011;8503;52.472;13.344;2023-09-08T03:19:40;8.70;;;6.53;;
16770;SDS011;8503;52.472;13.344;2023-09-08T03:20:28;11.13;;;6.57;;
16770;SDS011;8503;52.472;13.344;2023-09-08T03:21:13;10.95;;;6.70;;
16770;SDS011;8503;52.472;13.344;2023-09-08T03:21:56;8.43;;;6.57;;
16770;SDS011;8503;52.472;13.344;2023-09-08T03:22:40;11.02;;;7.00;;
16770;SDS011;8503;52.472;13.344;2023-09-08T03:23:23;9.35;;;7.07;;
16770;SDS011;8503;52.472;13.344;2023-09-08T03:24:06;8.52;;;7.32;;
16770;SDS011;8503;52.472;13.344;2023-09-08T03:24:50;10.40;;;7.45;;
16770;SDS011;8503;52.472;13.344;2023-09-08T03:25:33;10.25;;;6.95;;
16770;SDS011;8503;52.472;13.344;2023-09-08T03:26:17;8.57;;;7.25;;
16770;SDS011;8503;52.472;13.344;2023-09-08T03:27:01;9.73;;;6.68;;
16770;SDS011;8503;52.472;13.344;2023-09-08T03:27:45;10.02;;;7.45;;
16770;SDS011;8503;52.472;13.344;2023-09-08T03:28:28;9.38;;;7.38;;
16770;SDS011;8503;52.472;13.344;2023-09-08T03:29:11;12.02;;;7.30;;
16770;SDS011;8503;52.472;13.344;2023-09-08T03:29:55;12.55;;;7.63;;
16770;SDS011;8503;52.472;13.344;2023-09-08T03:30:37;9.68;;;7.30;;
16770;SDS011;8503;52.472;13.344;2023-09-08T03:31:21;9.60;;;7.32;;
16770;SDS011;8503;52.472;13.344;2023-09-08T03:32:05;10.35;;;6.72;;
16770;SDS011;8503;52.472;13.344;2023-09-08T03:32:48;10.98;;;7.47;;
16770;SDS011;8503;52.472;13.344;2023-09-08T03:33:31;8.18;;;7.05;;
16770;SDS011;8503;52.472;13.344;2023-09-08T03:34:14;11.07;;;7.55;;
16770;SDS011;8503;52.472;13.344;2023-09-08T03:34:59;9.70;;;7.22;;
16770;SDS011;8503;52.472;13.344;2023-09-08T03:35:42;9.68;;;6.65;;
16770;SDS011;8503;52.472;13.344;2023-09-08T03:36:25;10.98;;;7.43;;
16770;SDS011;8503;52.472;13.344;2023-09-08T03:37:09;11.02;;;7.47;;
16770;SDS011;8503;52.472;13.344;2023-09-08T03:37:52;10.82;;;7.57;;
16770;SDS011;8503;52.472;13.344;2023-09-08T03:38:35;12.85;;;7.68;;
16770;SDS011;8503;52.472;13.344;2023-09-08T03:39:19;11.68;;;6.95;;
16770;SDS011;8503;52.472;13.344;2023-09-08T03:40:02;9.48;;;6.63;;
16770;SDS011;8503;52.472;13.344;2023-09-08T03:40:47;9.10;;;7.45;;
16770;SDS011;8503;52.472;13.344;2023-09-08T03:41:30;10.45;;;7.30;;
16770;SDS011;8503;52.472;13.344;2023-09-08T03:42:13;11.20;;;7.53;;
16770;SDS011;8503;52.472;13.344;2023-09-08T03:42:57;13.00;;;7.43;;
16770;SDS011;8503;52.472;13.344;2023-09-08T03:43:41;11.20;;;7.78;;
16770;SDS011;8503;52.472;13.344;2023-09-08T03:44:24;9.68;;;6.78;;
16770;SDS011;8503;52.472;13.344;2023-09-08T03:45:08;9.25;;;7.18;;
16770;SDS011;8503;52.472;13.344;2023-09-08T03:45:51;9.98;;;7.13;;
16770;SDS011;8503;52.472;13.344;2023-09-08T03:46:34;10.35;;;6.80;;
16770;SDS011;8503;52.472;13.344;2023-09-08T03:47:18;11.15;;;7.43;;
16770;SDS011;8503;52.472;13.344;2023-09-08T03:48:01;9.43;;;7.60;;
16770;SDS011;8503;52.472;13.344;2023-09-08T03:48:44;8.50;;;7.25;;
16770;SDS011;8503;52.472;13.344;2023-09-08T03:49:28;11.25;;;7.85;;
16770;SDS011;8503;52.472;13.344;2023-09-08T03:50:11;9.10;;;7.22;;
16770;SDS011;8503;52.472;13.344;2023-09-08T03:50:54;10.57;;;7.35;;
16770;SDS011;8503;52.472;13.344;2023-09-08T03:51:39;10.55;;;7.75;;
16770;SDS011;8503;52.472;13.344;2023-09-08T03:52:22;11.18;;;6.68;;
16770;SDS011;8503;52.472;13.344;2023-09-08T03:53:05;13.10;;;7.78;;
16770;SDS011;8503;52.472;13.344;2023-09-08T03:53:49;11.50;;;7.45;;
16770;SDS011;8503;52.472;13.344;2023-09-08T03:54:32;10.80;;;8.13;;
16770;SDS011;8503;52.472;13.344;2023-09-08T03:55:15;8.88;;;6.72;;
16770;SDS011;8503;52.472;13.344;2023-09-08T03:55:59;9.48;;;7.57;;
16770;SDS011;8503;52.472;13.344;2023-09-08T03:56:42;10.77;;;7.38;;
16770;SDS011;8503;52.472;13.344;2023-09-08T03:57:25;10.13;;;7.97;;
16770;SDS011;8503;52.472;13.344;2023-09-08T03:58:10;8.85;;;6.68;;
16770;SDS011;8503;52.472;13.344;2023-09-08T03:58:52;10.52;;;7.32;;
16770;SDS011;8503;52.472;13.344;2023-09-08T03:59:35;9.25;;;7.15;;
16770;SDS011;8503;52.472;13.344;2023-09-08T04:00:19;8.98;;;6.97;;
16770;SDS011;8503;52.472;13.344;2023-09-08T04:01:03;9.07;;;7.43;;
16770;SDS011;8503;52.472;13.344;2023-09-08T04:01:46;10.68;;;7.75;;
16770;SDS011;8503;52.472;13.344;2023-09-08T04:02:30;8.65;;;6.50;;
16770;SDS011;8503;52.472;13.344;2023-09-08T04:03:13;10.32;;;7.20;;
16770;SDS011;8503;52.472;13.344;2023-09-08T04:03:56;8.73;;;7.07;;
16770;SDS011;8503;52.472;13.344;2023-09-08T04:04:40;11.30;;;7.32;;
16770;SDS011;8503;52.472;13.344;2023-09-08T04:05:22;9.00;;;7.38;;
16770;SDS011;8503;52.472;13.344;2023-09-08T04:06:06;9.90;;;7.38;;
16770;SDS011;8503;52.472;13.344;2023-09-08T04:06:50;8.35;;;7.18;;
16770;SDS011;8503;52.472;13.344;2023-09-08T04:07:33;9.70;;;7.28;;
16770;SDS011;8503;52.472;13.344;2023-09-08T04:08:17;9.77;;;6.93;;
16770;SDS011;8503;52.472;13.344;2023-09-08T04:09:00;9.45;;;6.68;;
16770;SDS011;8503;52.472;13.344;2023-09-08T04:09:42;8.98;;;7.47;;
16770;SDS011;8503;52.472;13.344;2023-09-08T04:10:26;9.43;;;7.13;;
16770;SDS011;8503;52.472;13.344;2023-09-08T04:11:09;12.77;;;7.88;;
16770;SDS011;8503;52.472;13.344;2023-09-08T04:11:52;11.30;;;6.82;;
16770;SDS011;8503;52.472;13.344;2023-09-08T04:12:36;10.63;;;8.15;;
16770;SDS011;8503;52.472;13.344;2023-09-08T04:13:22;8.82;;;6.90;;
16770;SDS011;8503;52.472;13.344;2023-09-08T04:14:04;9.52;;;7.35;;
16770;SDS011;8503;52.472;13.344;2023-09-08T04:14:47;8.68;;;7.15;;
16770;SDS011;8503;52.472;13.344;2023-09-08T04:15:31;11.57;;;7.63;;
16770;SDS011;8503;52.472;13.344;2023-09-08T04:16:14;8.50;;;7.60;;
16770;SDS011;8503;52.472;13.344;2023-09-08T04:16:57;9.93;;;7.57;;
16770;SDS011;8503;52.472;13.344;2023-09-08T04:17:41;10.88;;;6.63;;
16770;SDS011;8503;52.472;13.344;2023-09-08T04:18:23;10.43;;;7.22;;
16770;SDS011;8503;52.472;13.344;2023-09-08T04:19:06;8.77;;;6.60;;
16770;SDS011;8503;52.472;13.344;2023-09-08T04:19:50;10.82;;;7.22;;
16770;SDS011;8503;52.472;13.344;2023-09-08T04:20:33;14.43;;;7.78;;
16770;SDS011;8503;52.472;13.344;2023-09-08T04:21:16;10.40;;;8.13;;
16770;SDS011;8503;52.472;13.344;2023-09-08T04:22:01;9.38;;;6.53;;
16770;SDS011;8503;52.472;13.344;2023-09-08T04:22:45;12.20;;;8.02;;
16770;SDS011;8503;52.472;13.344;2023-09-08T04:23:29;10.10;;;7.65;;
16770;SDS011;8503;52.472;13.344;2023-09-08T04:24:13;9.32;;;8.02;;
16770;SDS011;8503;52.472;13.344;2023-09-08T04:24:56;9.60;;;7.43;;
16770;SDS011;8503;52.472;13.344;2023-09-08T04:25:39;11.48;;;7.40;;
16770;SDS011;8503;52.472;13.344;2023-09-08T04:26:22;10.30;;;7.70;;
16770;SDS011;8503;52.472;13.344;2023-09-08T04:27:07;13.15;;;7.40;;